Latest Weather Observations for Troughton Island

IDD60801

Issued at 2:21 pm CST Monday 23 September 2019 (issued every 10 minutes, with the page automatically refreshed every 10 minutes)

About weather observations | Map of weather stations | Latest weather observations for NT | Other Formats
Station Details ID: 001007 Name: TROUGHTON ISLAND Lat: -13.75 Lon: 126.15 Height: 6.0 m
Data from the previous 72 hours. | See also: Recent months at Troughton Island
Date/Time
CST
Temp
°C
App
Temp
°C
Dew
Point
°C
Rel
Hum
%
Delta-T
°C
Wind Press
QNH
hPa
Press
MSL
hPa
Rain since
9am
mm
Dir  Spd
km/h
Gust
km/h
Spd
kts
Gust
kts
23/02:00pm 29.6 33.6 22.8 67 4.6 SSE 6 11 3 6 1016.0 1015.9 0.0
23/01:30pm 28.7 32.3 23.1 71 3.8 S 9 11 5 6 1016.5 1016.4 0.0
23/01:00pm 28.2 31.6 22.7 72 3.7 WSW 9 13 5 7 1017.1 1017.0 0.0
23/12:30pm 28.2 31.8 23.1 74 3.5 WSW 9 11 5 6 1017.7 1017.6 0.0
23/12:00pm 28.5 32.7 23.4 74 3.5 SW 7 11 4 6 1018.1 1018.0 0.0
23/11:30am 27.1 31.0 24.2 84 2.0 ENE 11 17 6 9 1018.5 1018.4 0.0
23/11:00am 27.6 31.8 23.4 78 2.9 SSE 7 9 4 5 1018.7 1018.6 0.0
23/10:30am 27.5 31.2 23.3 78 2.9 S 9 13 5 7 1018.6 1018.5 0.0
23/10:00am 27.9 31.4 22.8 74 3.5 S 9 13 5 7 1018.7 1018.6 0.0
23/09:30am 28.6 33.0 23.5 74 3.5 SE 6 9 3 5 1018.6 1018.5 0.0
23/09:00am 27.4 31.0 22.4 74 3.4 SSE 7 9 4 5 1018.4 1018.3 0.0
23/08:30am 27.4 31.2 22.8 76 3.1 SSE 7 7 4 4 1017.9 1017.8 0.0
23/08:00am 26.6 30.8 23.1 81 2.4 SSE 6 7 3 4 1017.4 1017.3 0.0
23/07:30am 25.6 29.6 23.1 86 1.7 S 7 9 4 5 1016.9 1016.8 0.0
23/07:00am 25.5 29.4 23.0 86 1.7 S 7 9 4 5 1016.5 1016.4 0.0
23/06:30am 25.6 29.0 23.3 87 1.6 W 11 13 6 7 1016.1 1016.0 0.0
23/06:00am 25.6 29.0 23.3 87 1.6 W 11 13 6 7 1015.8 1015.7 0.0
23/05:30am 25.6 29.0 23.3 87 1.6 W 11 11 6 6 1015.4 1015.3 0.0
23/05:00am 25.4 29.3 22.9 86 1.7 WNW 7 9 4 5 1015.1 1015.0 0.0
23/04:30am 25.5 29.4 23.0 86 1.7 WNW 7 9 4 5 1015.1 1015.0 0.0
23/04:00am 25.5 29.6 23.2 87 1.6 WNW 7 9 4 5 1015.2 1015.1 0.0
23/03:30am 25.2 29.0 22.7 86 1.7 NW 7 7 4 4 1015.3 1015.2 0.0
23/03:00am 25.3 29.1 22.8 86 1.7 NW 7 9 4 5 1015.4 1015.3 0.0
23/02:30am 25.4 29.1 22.5 84 1.9 NNW 7 7 4 4 1015.6 1015.5 0.0
23/02:00am 25.7 29.4 22.6 83 2.1 N 7 9 4 5 1015.8 1015.7 0.0
23/01:30am 26.3 30.2 23.0 82 2.2 N 7 9 4 5 1016.2 1016.1 0.0
23/01:00am 26.2 30.1 22.9 82 2.2 N 7 9 4 5 1016.4 1016.3 0.0
23/12:30am 26.3 30.2 23.0 82 2.2 N 7 9 4 5 1016.5 1016.4 0.0
23/12:00am 26.4 30.0 23.1 82 2.2 N 9 11 5 6 1016.8 1016.7 0.0
 
Date/Time
CST
Temp
°C
App
Temp
°C
Dew
Point
°C
Rel
Hum
%
Delta-T
°C
Wind Press
QNH
hPa
Press
MSL
hPa
Rain since
9am
mm
Dir  Spd
km/h
Gust
km/h
Spd
kts
Gust
kts
22/11:30pm 26.4 29.1 22.9 81 2.4 NNE 13 15 7 8 1016.8 1016.7 0.0
22/11:00pm 26.7 29.5 23.0 80 2.5 NNE 13 17 7 9 1016.9 1016.8 0.0
22/10:30pm 26.9 28.8 22.7 78 2.8 NNE 17 20 9 11 1016.9 1016.8 0.0
22/10:00pm 26.9 29.0 22.5 77 3.0 NNE 15 19 8 10 1016.9 1016.8 0.0
22/09:30pm 26.9 28.9 22.9 79 2.7 NNE 17 20 9 11 1016.5 1016.4 0.0
22/09:00pm 26.7 29.5 23.0 80 2.5 NNE 13 17 7 9 1016.1 1016.0 0.0
22/08:30pm 26.5 28.7 22.6 79 2.6 NNE 15 20 8 11 1015.7 1015.6 0.0
22/08:00pm 26.6 28.7 22.4 78 2.8 NNE 15 17 8 9 1015.4 1015.3 0.0
22/07:30pm 26.5 28.7 22.6 79 2.6 NNE 15 19 8 10 1015.4 1015.3 0.0
22/07:00pm 26.6 28.6 22.2 77 3.0 N 15 19 8 10 1015.0 1014.9 0.0
22/06:30pm 26.7 28.5 21.9 75 3.2 N 15 19 8 10 1014.8 1014.7 0.0
22/06:00pm 26.8 28.6 21.8 74 3.3 NE 15 19 8 10 1014.6 1014.5 0.0
22/05:30pm 27.2 29.4 21.9 73 3.6 NE 13 20 7 11 1014.3 1014.2 0.0
22/05:00pm 27.5 29.7 21.8 71 3.8 NE 13 17 7 9 1014.3 1014.2 0.0
22/04:30pm 28.4 30.5 22.4 70 4.1 NE 15 19 8 10 1014.2 1014.1 0.0
22/04:00pm 27.2 29.0 21.2 69 4.0 NNE 13 19 7 10 1014.4 1014.3 0.0
22/03:30pm 27.5 29.5 21.5 70 4.0 NNE 13 17 7 9 1014.9 1014.8 0.0
22/03:00pm 28.7 30.7 21.5 65 4.8 NE 13 17 7 9 1015.1 1015.0 0.0
22/02:30pm 28.8 30.1 21.6 65 4.8 ENE 17 20 9 11 1015.6 1015.5 0.0
22/02:00pm 28.8 29.9 21.3 64 5.0 NE 17 20 9 11 1016.0 1015.9 0.0
22/01:30pm 29.2 30.5 21.7 64 5.0 ENE 17 20 9 11 1016.2 1016.1 0.0
22/01:00pm 28.8 30.1 21.6 65 4.8 NE 17 20 9 11 1016.7 1016.6 0.0
22/12:30pm 28.9 31.0 21.7 65 4.8 ENE 13 17 7 9 1017.0 1016.9 0.0
22/12:00pm 28.5 30.8 21.3 65 4.8 E 11 19 6 10 1017.3 1017.2 0.0
22/11:30am 28.3 30.7 21.6 67 4.5 ENE 11 15 6 8 1017.3 1017.2 0.0
22/11:00am 28.4 31.0 21.9 68 4.4 SSW 11 15 6 8 1017.5 1017.4 0.0
22/10:30am 28.0 29.9 21.3 67 4.5 W 13 17 7 9 1017.3 1017.2 0.0
22/10:00am 27.6 29.5 21.4 69 4.1 WSW 13 17 7 9 1017.0 1016.9 0.0
22/09:30am 27.7 29.8 21.7 70 4.0 WSW 13 17 7 9 1016.8 1016.7 0.0
22/09:00am 26.9 28.5 20.7 69 4.1 WSW 13 17 7 9 1016.7 1016.6 0.0
22/08:30am 26.7 29.2 21.7 74 3.3 NW 11 15 6 8 1016.6 1016.5 0.0
22/08:00am 26.1 28.6 21.7 77 2.9 NNW 11 13 6 7 1016.3 1016.2 0.0
22/07:30am 24.8 27.5 21.3 81 2.3 NE 9 13 5 7 1015.9 1015.8 0.0
22/07:00am 24.2 26.3 20.9 82 2.2 NE 11 15 6 8 1015.4 1015.3 0.0
22/06:30am 24.8 27.1 21.3 81 2.3 WNW 11 13 6 7 1015.2 1015.1 0.0
22/06:00am 24.7 27.0 21.4 82 2.2 WNW 11 15 6 8 1014.9 1014.8 0.0
22/05:30am 24.2 27.0 20.9 82 2.2 NW 7 9 4 5 1014.7 1014.6 0.0
22/05:00am 24.3 27.1 20.8 81 2.3 NW 7 9 4 5 1014.3 1014.2 0.0
22/04:30am 24.6 27.0 20.9 80 2.4 WNW 9 11 5 6 1014.0 1013.9 0.0
22/04:00am 24.9 27.2 21.4 81 2.3 WNW 11 13 6 7 1013.9 1013.8 0.0
22/03:30am 24.6 26.9 21.3 82 2.2 NW 11 13 6 7 1014.1 1014.0 0.0
22/03:00am 24.5 26.6 21.0 81 2.3 NW 11 13 6 7 1014.2 1014.1 0.0
22/02:30am 24.5 26.3 21.2 82 2.2 NW 13 15 7 8 1014.1 1014.0 0.0
22/02:00am 24.3 26.3 20.8 81 2.3 NNW 11 11 6 6 1014.4 1014.3 0.0
22/01:30am 24.4 26.6 20.5 79 2.5 NNW 9 11 5 6 1014.7 1014.6 0.0
22/01:00am 24.8 27.1 20.7 78 2.7 NNW 9 11 5 6 1015.0 1014.9 0.0
22/12:30am 25.5 28.5 21.2 77 2.8 N 7 9 4 5 1015.1 1015.0 0.0
22/12:00am 25.5 27.7 21.2 77 2.8 N 11 13 6 7 1015.3 1015.2 0.0
 
Date/Time
CST
Temp
°C
App
Temp
°C
Dew
Point
°C
Rel
Hum
%
Delta-T
°C
Wind Press
QNH
hPa
Press
MSL
hPa
Rain since
9am
mm
Dir  Spd
km/h
Gust
km/h
Spd
kts
Gust
kts
21/11:30pm 25.6 28.3 21.3 77 2.8 NNE 9 11 5 6 1015.4 1015.3 0.0
21/11:00pm 25.8 27.5 21.0 75 3.2 N 13 17 7 9 1015.4 1015.3 0.0
21/10:30pm 25.9 27.7 21.1 75 3.2 N 13 17 7 9 1015.4 1015.3 0.0
21/10:00pm 26.0 27.2 21.4 76 3.1 N 17 20 9 11 1015.3 1015.2 0.0
21/09:30pm 26.0 27.6 22.1 79 2.6 N 17 20 9 11 1015.1 1015.0 0.0
21/09:00pm 26.1 27.8 21.7 77 2.9 N 15 20 8 11 1014.7 1014.6 0.0
21/08:30pm 26.1 27.6 22.0 78 2.7 N 17 22 9 12 1014.4 1014.3 0.0
21/08:00pm 26.3 28.1 22.6 80 2.5 N 17 24 9 13 1014.0 1013.9 0.0
21/07:30pm 26.5 27.3 21.7 75 3.2 N 20 28 11 15 1013.7 1013.6 0.0
21/07:00pm 26.5 27.4 22.6 79 2.6 N 22 30 12 16 1013.2 1013.1 0.0
21/06:30pm 26.9 27.2 22.9 79 2.7 N 26 37 14 20 1012.9 1012.8 0.0
21/06:00pm 27.4 27.7 23.0 77 3.0 N 26 33 14 18 1012.7 1012.6 0.0
21/05:30pm 28.0 27.3 22.5 72 3.7 N 30 35 16 19 1012.5 1012.4 0.0
21/05:00pm 28.1 28.2 22.6 72 3.7 N 26 32 14 17 1012.5 1012.4 0.0
21/04:30pm 28.1 28.8 23.0 74 3.5 N 24 32 13 17 1012.5 1012.4 0.0
21/04:00pm 28.7 29.0 22.2 68 4.4 N 24 30 13 16 1012.5 1012.4 0.0
21/03:30pm 29.2 30.2 22.9 69 4.3 N 22 28 12 15 1012.5 1012.4 0.0
21/03:00pm 29.1 30.8 23.1 70 4.1 NNW 19 22 10 12 1012.7 1012.6 0.0
21/02:30pm 29.7 32.1 22.9 67 4.6 W 15 19 8 10 1012.9 1012.8 0.0
21/02:00pm 29.0 31.1 22.5 68 4.4 WSW 15 17 8 9 1013.2 1013.1 0.0
21/01:30pm 29.4 31.2 22.6 67 4.6 WSW 17 20 9 11 1013.3 1013.2 0.0
21/01:00pm 28.6 30.8 22.6 70 4.1 SW 15 17 8 9 1013.7 1013.6 0.0
21/12:30pm 28.9 30.7 22.6 69 4.3 SW 17 20 9 11 1014.2 1014.1 0.0
21/12:00pm 28.6 30.5 22.1 68 4.4 WSW 15 19 8 10 1014.6 1014.5 0.0
21/11:30am 29.6 31.9 23.5 69 4.2 SW 17 20 9 11 1014.9 1014.8 0.0
21/11:00am 28.4 30.0 22.2 69 4.2 SW 17 20 9 11 1014.9 1014.8 0.0
21/10:30am 28.3 30.0 22.3 70 4.1 SW 17 20 9 11 1015.1 1015.0 0.0
21/10:00am 28.2 29.7 22.7 72 3.7 SW 19 22 10 12 1015.2 1015.1 0.0
21/09:30am 27.6 29.2 22.8 75 3.3 WSW 19 22 10 12 1015.1 1015.0 0.0
21/09:00am 27.2 29.5 22.8 77 3.0 SW 15 20 8 11 1015.1 1015.0 0.0
21/08:30am 26.5 28.7 22.6 79 2.6 W 15 17 8 9 1014.9 1014.8 0.0
21/08:00am 25.9 28.2 22.8 83 2.1 W 15 17 8 9 1014.6 1014.5 0.0
21/07:30am 25.3 27.2 22.8 86 1.7 W 17 19 9 10 1014.3 1014.2 0.0
21/07:00am 25.1 27.0 22.8 87 1.6 WSW 17 19 9 10 1013.9 1013.8 0.0
21/06:30am 25.1 26.9 22.6 86 1.7 W 17 19 9 10 1013.6 1013.5 0.0
21/06:00am 25.2 27.1 22.7 86 1.7 WSW 17 20 9 11 1013.5 1013.4 0.0
21/05:30am 25.2 27.1 22.7 86 1.7 WSW 17 20 9 11 1013.4 1013.3 0.0
21/05:00am 25.2 27.6 22.9 87 1.6 WSW 15 17 8 9 1013.2 1013.1 0.0
21/04:30am 25.1 27.8 22.8 87 1.6 WSW 13 17 7 9 1013.1 1013.0 0.0
21/04:00am 25.0 27.3 22.7 87 1.5 WSW 15 17 8 9 1013.0 1012.9 0.0
21/03:30am 25.0 27.0 22.9 88 1.4 W 17 19 9 10 1013.1 1013.0 0.0
21/03:00am 25.0 27.4 22.9 88 1.4 W 15 17 8 9 1013.4 1013.3 0.0
21/02:30am 24.9 28.0 22.8 88 1.4 SW 11 15 6 8 1013.7 1013.6 0.0
21/02:00am 24.7 27.8 22.8 89 1.3 SW 11 11 6 6 1013.8 1013.7 0.0
21/01:30am 24.5 27.5 22.6 89 1.3 SSW 11 13 6 7 1014.1 1014.0 0.0
21/01:00am 24.5 27.4 22.4 88 1.4 SSW 11 13 6 7 1014.3 1014.2 0.0
21/12:30am 24.3 26.9 22.0 87 1.5 S 11 15 6 8 1014.5 1014.4 0.0
21/12:00am 24.7 27.9 22.4 87 1.5 E 9 13 5 7 1014.6 1014.5 0.0
 
Date/Time
CST
Temp
°C
App
Temp
°C
Dew
Point
°C
Rel
Hum
%
Delta-T
°C
Wind Press
QNH
hPa
Press
MSL
hPa
Rain since
9am
mm
Dir  Spd
km/h
Gust
km/h
Spd
kts
Gust
kts
20/11:30pm 25.0 28.3 22.5 86 1.7 E 9 13 5 7 1014.8 1014.7 0.0
20/11:00pm 25.1 28.1 22.6 86 1.7 E 11 15 6 8 1014.7 1014.6 0.0
20/10:30pm 25.2 28.1 22.5 85 1.8 ENE 11 15 6 8 1014.7 1014.6 0.0
20/10:00pm 25.6 27.9 22.7 84 2.0 NNE 15 19 8 10 1014.4 1014.3 0.0
20/09:30pm 25.8 28.5 22.9 84 2.0 NNE 13 17 7 9 1014.3 1014.2 0.0
20/09:00pm 25.8 27.8 22.9 84 2.0 N 17 20 9 11 1013.8 1013.7 0.0
20/08:30pm 26.0 27.5 22.7 82 2.2 N 19 22 10 12 1013.5 1013.4 0.0
20/08:00pm 26.0 27.5 22.7 82 2.2 N 19 24 10 13 1013.3 1013.2 0.0
20/07:30pm 26.1 27.5 22.8 82 2.2 NNW 20 26 11 14 1012.9 1012.8 0.0
20/07:00pm 26.3 27.4 22.4 79 2.6 NNW 20 24 11 13 1012.7 1012.6 0.0
20/06:30pm 27.0 28.3 22.4 76 3.1 NNW 19 24 10 13 1012.5 1012.4 0.0
20/06:00pm 27.7 28.8 22.4 73 3.6 NNW 20 24 11 13 1012.5 1012.4 0.0
20/05:30pm 28.2 29.2 22.2 70 4.0 NNW 20 26 11 14 1012.3 1012.2 0.0
20/05:00pm 28.6 29.3 22.3 68 4.3 NNW 22 26 12 14 1012.1 1012.0 0.0
20/04:30pm 28.8 29.5 21.6 65 4.8 NNW 20 26 11 14 1012.2 1012.1 0.0
20/04:00pm 29.2 30.1 21.9 64 4.9 NNW 20 24 11 13 1012.3 1012.2 0.0

Other formats

Comma delimited format used in spreadsheet applications
http://www.bom.gov.au/fwo/IDD60801/IDD60801.94102.axf

JavaScript Object Notation format (JSON) in row-major order
http://www.bom.gov.au/fwo/IDD60801/IDD60801.94102.json

Data quality

Most of these data are generated automatically and are frequently updated. Quality checks on data are not normally performed. It is possible for incorrect values to appear. Refer to information at About Latest Weather Observations and please check the disclaimer before using these data.